Dati Storici

Data ora Umidita' aria (%) Temperatura aria (°C) Rad globale (W/m²) Gonioanemometro (°) Tacoanemometro (m/s) Pioggia (mm)
05-04-2020 05:20 54.4 % 8.902 -66.259 1.104 0 0
05-04-2020 05:10 54.3 % 8.999 -85.095 1.405 0 0
05-04-2020 05:00 53.6 % 9.091 -65.646 1.106 0 0
05-04-2020 04:50 53.1 % 9.289 -65.249 0.645 0 0
05-04-2020 04:40 52.9 % 9.457 -81.297 1.713 0 0
05-04-2020 04:30 52.7 % 9.49 -81.885 1.996 0 0
05-04-2020 04:20 52.6 % 9.62 -85.027 2.814 0 0
05-04-2020 04:10 53 % 9.532 -84.051 2.432 0 0
05-04-2020 04:00 53.6 % 9.453 -83.353 1.265 0 0
05-04-2020 03:50 53.8 % 9.461 -85.046 2.165 0 0
05-04-2020 03:40 53.4 % 9.364 -66.783 1.58 0 0
05-04-2020 03:30 53 % 9.525 -84.759 1.103 0 0
05-04-2020 03:20 52.9 % 9.704 -83.344 2.491 0 0
05-04-2020 03:10 52.4 % 9.87 -84.924 2.021 0 0
05-04-2020 03:00 52 % 10.021 -85.146 2.223 0 0
05-04-2020 02:50 51.8 % 10.056 -85.045 2.009 0 0
05-04-2020 02:40 51.5 % 10.236 -84.991 2.92 0 0
05-04-2020 02:30 51.4 % 10.336 -68.042 1.039 0 0
05-04-2020 02:20 51.2 % 10.554 -85.244 2.895 0 0
05-04-2020 02:10 51.2 % 10.64 -84.114 2.035 0 0

I dati sono presentati in modo automatico a scopo informativo. In seguito a verifica i dati possono subire modifiche o essere invalidati e non riportati negli archivi definitivi.